Time;durP1;ratioP1;P1;durP2;ratioP2;P2;SDS_P1;SDS_P2;PMS_P1;PMS_P2;Temp;Humidity;BMP_temperature;BMP_pressure;BME280_temperature;BME280_humidity;BME280_pressure;Samples;Min_cycle;Max_cycle;Signal;HPM_P1;HPM_P2
2023/04/11 00:00:09;;;;;;;77.35;25.17;;;;;;;15.06;42.38;99992.09;4961670;28;20054;-75
2023/04/11 00:02:39;;;;;;;72.15;25.38;;;;;;;15.08;42.82;99995.41;4961939;28;20147;-75
2023/04/11 00:05:05;;;;;;;69.93;25.50;;;;;;;15.17;42.91;99989.00;4961543;28;20088;-75
2023/04/11 00:07:34;;;;;;;76.90;25.88;;;;;;;15.11;42.67;99988.88;4961622;28;20534;-76
2023/04/11 00:10:00;;;;;;;68.53;24.50;;;;;;;15.15;42.36;99987.50;4977504;28;20053;-75
2023/04/11 00:12:27;;;;;;;71.28;25.83;;;;;;;15.15;42.42;99993.69;4977492;28;20038;-76
2023/04/11 00:14:54;;;;;;;74.22;25.02;;;;;;;15.19;42.64;99992.31;4978155;28;20057;-76
2023/04/11 00:17:20;;;;;;;65.63;24.08;;;;;;;15.25;42.73;99991.59;4977808;28;20052;-76
2023/04/11 00:19:47;;;;;;;73.32;25.42;;;;;;;15.25;43.30;99986.25;4977047;28;20049;-76
2023/04/11 00:22:16;;;;;;;57.22;24.92;;;;;;;15.19;43.15;99980.81;4961225;28;20048;-75
2023/04/11 00:24:42;;;;;;;67.80;25.17;;;;;;;15.19;42.76;99978.94;4977503;28;20053;-75
2023/04/11 00:27:08;;;;;;;73.70;24.23;;;;;;;15.20;42.55;99982.47;4995199;28;20526;-76
2023/04/11 00:29:37;;;;;;;81.70;24.52;;;;;;;15.12;42.52;99972.66;4981721;28;20045;-75
2023/04/11 00:32:02;;;;;;;74.68;23.85;;;;;;;15.08;42.35;99974.00;5013947;28;20047;-74
2023/04/11 00:34:31;;;;;;;73.30;23.58;;;;;;;15.02;42.19;99984.59;4997580;28;20148;-75
2023/04/11 00:36:57;;;;;;;65.75;21.65;;;;;;;14.94;41.81;99981.97;4998237;28;20434;-76
2023/04/11 00:39:25;;;;;;;56.13;19.85;;;;;;;14.96;41.67;99982.66;4997949;28;20045;-75
2023/04/11 00:41:52;;;;;;;50.50;20.77;;;;;;;14.89;41.84;99977.16;5014726;28;20450;-76
2023/04/11 00:44:17;;;;;;;45.95;17.20;;;;;;;14.82;40.49;99978.88;4997352;28;20049;-76
2023/04/11 00:46:45;;;;;;;68.28;23.30;;;;;;;15.03;42.28;99973.72;4981536;28;20091;-75
2023/04/11 00:49:11;;;;;;;45.60;20.88;;;;;;;14.79;41.80;99981.09;5013945;28;20033;-76
2023/04/11 00:51:37;;;;;;;55.17;23.42;;;;;;;14.79;43.38;99976.53;4981111;28;20446;-75
2023/04/11 00:54:03;;;;;;;67.72;24.80;;;;;;;14.74;43.62;99978.94;5013684;28;20053;-76
2023/04/11 00:56:29;;;;;;;67.18;25.52;;;;;;;14.44;44.08;99973.56;4997405;28;20168;-75
2023/04/11 00:58:55;;;;;;;63.75;23.55;;;;;;;14.43;44.61;99987.94;5013956;28;20657;-79
2023/04/11 01:01:24;;;;;;;57.85;24.05;;;;;;;14.35;44.72;99983.47;4981562;28;20037;-74
2023/04/11 01:03:50;;;;;;;60.70;25.60;;;;;;;14.33;45.20;99982.00;4997398;28;20110;-75
2023/04/11 01:06:18;;;;;;;54.55;25.13;;;;;;;14.54;45.33;99991.09;4997454;28;20071;-75
2023/04/11 01:08:45;;;;;;;69.30;25.48;;;;;;;14.51;45.81;99980.75;4981203;28;20191;-74
2023/04/11 01:11:11;;;;;;;58.95;26.73;;;;;;;14.43;45.80;99988.78;4981103;28;20112;-74
2023/04/11 01:13:41;;;;;;;61.80;25.00;;;;;;;14.68;45.50;99992.16;4996887;28;20045;-74
2023/04/11 01:16:08;;;;;;;62.22;24.27;;;;;;;14.43;45.49;99987.94;4995408;28;20547;-76
2023/04/11 01:18:35;;;;;;;62.05;25.05;;;;;;;14.46;45.64;99987.59;4995683;28;20045;-75
2023/04/11 01:21:01;;;;;;;82.57;29.15;;;;;;;14.34;45.39;99989.00;4979105;28;20049;-75
2023/04/11 01:23:28;;;;;;;64.35;26.63;;;;;;;14.34;45.42;99991.66;4980944;28;20048;-75
2023/04/11 01:25:54;;;;;;;64.15;25.67;;;;;;;14.36;45.50;99978.97;4999143;28;20436;-75
2023/04/11 01:28:21;;;;;;;75.95;25.63;;;;;;;14.42;44.91;99979.09;4983350;28;20045;-75
2023/04/11 01:30:47;;;;;;;60.30;25.20;;;;;;;14.42;44.31;99983.63;4982981;28;20065;-75
2023/04/11 01:33:14;;;;;;;63.83;25.33;;;;;;;14.45;44.47;99983.25;4984671;28;20540;-74
2023/04/11 01:35:41;;;;;;;58.88;25.58;;;;;;;14.35;44.70;99980.81;4984733;28;20724;-74
2023/04/11 01:38:08;;;;;;;55.83;24.83;;;;;;;14.35;44.62;99991.50;4985084;28;20049;-75
2023/04/11 01:40:34;;;;;;;66.28;26.83;;;;;;;14.36;44.70;99978.97;4984715;28;20049;-74
2023/04/11 01:43:01;;;;;;;60.53;27.85;;;;;;;14.44;44.65;99982.44;5000795;28;20044;-77
2023/04/11 01:45:28;;;;;;;61.60;31.20;;;;;;;14.05;45.41;99980.72;5000970;28;20439;-75
2023/04/11 01:47:55;;;;;;;57.65;30.20;;;;;;;14.06;45.28;99975.19;4984665;28;20399;-74
2023/04/11 01:50:22;;;;;;;55.63;29.63;;;;;;;14.09;45.19;99976.69;4984766;28;20045;-73
2023/04/11 01:52:49;;;;;;;55.25;27.77;;;;;;;14.18;45.35;99948.94;5000416;28;20056;-74
2023/04/11 01:55:17;;;;;;;48.22;25.02;;;;;;;14.20;44.57;99961.13;5016807;28;20045;-74
2023/04/11 01:57:43;;;;;;;49.22;25.38;;;;;;;14.34;44.61;99975.63;4984653;28;20479;-74
2023/04/11 02:00:09;;;;;;;57.85;26.80;;;;;;;14.37;45.51;99970.78;4984203;28;20131;-74
2023/04/11 02:02:40;;;;;;;;;;;;;;;14.83;44.73;99971.69;5017615;28;20071;-74
2023/04/11 02:05:08;;;;;;;49.95;26.65;;;;;;;14.40;44.78;99972.25;5016357;28;19921;-74
2023/04/11 02:07:34;;;;;;;55.00;28.38;;;;;;;14.46;44.82;99971.56;5016870;28;20054;-74
2023/04/11 02:09:59;;;;;;;51.22;27.50;;;;;;;14.45;45.26;99970.72;5000259;28;20041;-74
2023/04/11 02:12:29;;;;;;;61.33;27.35;;;;;;;14.53;45.13;99976.03;5016523;28;20033;-74
2023/04/11 02:14:55;;;;;;;53.20;28.88;;;;;;;14.41;45.70;99964.06;5000452;28;20048;-74
2023/04/11 02:17:25;;;;;;;57.03;29.13;;;;;;;14.40;46.35;99967.75;5016817;28;20106;-73
2023/04/11 02:19:51;;;;;;;58.83;28.75;;;;;;;14.42;45.91;99964.91;5000984;28;20079;-75
2023/04/11 02:22:17;;;;;;;52.47;28.48;;;;;;;14.44;46.03;99965.53;5000268;28;20096;-76
2023/04/11 02:24:42;;;;;;;50.88;27.25;;;;;;;14.43;45.66;99963.88;4999952;28;20056;-75
2023/04/11 02:27:09;;;;;;;57.33;27.83;;;;;;;14.60;45.44;99962.81;4999826;28;20064;-75
2023/04/11 02:29:35;;;;;;;53.92;26.60;;;;;;;14.36;45.35;99946.91;5016570;28;20038;-75
2023/04/11 02:32:01;;;;;;;45.10;23.67;;;;;;;14.44;44.92;99965.53;4984167;28;20048;-75
2023/04/11 02:34:27;;;;;;;52.17;23.65;;;;;;;14.54;44.80;99966.19;4999987;28;20045;-75
2023/04/11 02:36:54;;;;;;;59.33;25.92;;;;;;;14.52;44.56;99963.69;5000753;28;20144;-75
2023/04/11 02:39:24;;;;;;;53.08;25.98;;;;;;;14.62;44.81;99961.59;5000634;28;20094;-75
2023/04/11 02:41:50;;;;;;;48.33;25.23;;;;;;;14.59;44.38;99950.47;5000751;28;20049;-74
2023/04/11 02:44:17;;;;;;;45.78;24.05;;;;;;;14.60;44.57;99952.13;4999542;28;20437;-75
2023/04/11 02:46:43;;;;;;;44.28;22.92;;;;;;;14.62;44.51;99953.59;5000189;28;20046;-74
2023/04/11 02:49:10;;;;;;;57.33;24.30;;;;;;;14.76;44.84;99947.50;5000369;28;20490;-72
2023/04/11 02:51:39;;;;;;;50.20;24.17;;;;;;;14.66;45.29;99954.91;5016348;28;20049;-72
2023/04/11 02:54:06;;;;;;;46.13;24.20;;;;;;;14.63;45.11;99957.09;4999964;28;20472;-72
2023/04/11 02:56:37;;;;;;;43.95;24.98;;;;;;;14.68;44.99;99954.75;5000370;28;20511;-75
2023/04/11 02:59:05;;;;;;;48.05;23.40;;;;;;;14.84;45.28;99954.63;4999516;28;20041;-75
2023/04/11 03:01:32;;;;;;;43.95;24.25;;;;;;;14.74;45.39;99957.56;4983245;28;20148;-73
2023/04/11 03:03:58;;;;;;;43.22;22.25;;;;;;;14.80;45.84;99954.16;4983075;28;20049;-73
2023/04/11 03:06:32;;;;;;;49.75;24.73;;;;;;;14.77;46.13;99953.69;5001213;28;20049;-74
2023/04/11 03:08:59;;;;;;;42.17;23.00;;;;;;;14.77;45.63;99959.03;5015767;28;20038;-74
2023/04/11 03:11:26;;;;;;;51.17;20.88;;;;;;;14.83;45.06;99953.81;5015350;28;20073;-74
2023/04/11 03:13:51;;;;;;;49.35;22.38;;;;;;;14.82;44.90;99952.13;5015496;28;20547;-74
2023/04/11 03:16:18;;;;;;;45.67;23.25;;;;;;;14.84;45.34;99958.13;5015012;28;20474;-74
2023/04/11 03:18:44;;;;;;;52.67;23.48;;;;;;;14.85;45.20;99956.31;4999266;28;20048;-74
2023/04/11 03:21:11;;;;;;;49.78;22.52;;;;;;;14.81;45.31;99961.16;4999282;28;20049;-74
2023/04/11 03:23:42;;;;;;;51.60;24.65;;;;;;;14.80;46.28;99951.50;4983775;28;20041;-75
2023/04/11 03:26:07;;;;;;;51.15;24.58;;;;;;;14.83;46.13;99955.66;4998727;28;20337;-74
2023/04/11 03:28:33;;;;;;;52.42;24.30;;;;;;;14.84;45.96;99952.78;5031229;28;20060;-72
2023/04/11 03:30:59;;;;;;;49.67;23.55;;;;;;;14.83;45.10;99958.31;4994484;28;20053;-73
2023/04/11 03:33:25;;;;;;;57.92;25.23;;;;;;;14.88;45.19;99947.94;4998841;28;20128;-73
2023/04/11 03:35:51;;;;;;;45.97;24.63;;;;;;;14.87;45.28;99943.56;4982761;28;20050;-77
2023/04/11 03:38:17;;;;;;;55.10;24.05;;;;;;;14.88;45.18;99948.75;4977815;28;20480;-74
2023/04/11 03:40:43;;;;;;;57.08;25.33;;;;;;;14.94;45.79;99947.22;4945623;28;20057;-75
2023/04/11 03:43:15;;;;;;;50.40;24.47;;;;;;;15.17;45.47;99950.72;4964385;28;20157;-73
2023/04/11 03:45:42;;;;;;;60.38;25.05;;;;;;;15.17;45.36;99950.72;4962221;28;20104;-73
2023/04/11 03:48:16;;;;;;;56.33;25.42;;;;;;;15.09;45.05;99948.94;4947166;28;20058;-73
2023/04/11 03:50:54;;;;;;;60.10;25.80;;;;;;;15.21;45.70;99941.31;4945270;28;20045;-73
2023/04/11 03:53:25;;;;;;;53.15;25.42;;;;;;;15.21;46.46;99942.13;4941764;28;20057;-71
2023/04/11 03:55:55;;;;;;;57.03;25.50;;;;;;;15.27;45.14;99954.81;4966291;28;20482;-72
2023/04/11 03:58:28;;;;;;;48.20;24.35;;;;;;;15.33;45.34;99955.91;4960601;28;20451;-71
2023/04/11 04:00:54;;;;;;;52.70;24.42;;;;;;;15.43;44.94;99947.66;4959894;28;20080;-72
2023/04/11 04:03:21;;;;;;;43.08;23.27;;;;;;;15.49;44.57;99949.63;4992443;28;20049;-72
2023/04/11 04:05:47;;;;;;;45.63;25.00;;;;;;;15.45;44.20;99953.69;4993389;28;20042;-73
2023/04/11 04:08:14;;;;;;;60.63;25.30;;;;;;;15.51;43.42;99961.81;4973503;28;20128;-75
2023/04/11 04:10:43;;;;;;;57.83;25.55;;;;;;;15.55;43.77;99959.59;4982597;28;20044;-73
2023/04/11 04:13:09;;;;;;;47.30;23.55;;;;;;;15.54;43.50;99963.28;4998083;28;20038;-73
2023/04/11 04:15:39;;;;;;;52.60;23.48;;;;;;;15.57;43.03;99966.44;5021598;28;20487;-73
2023/04/11 04:18:07;;;;;;;53.60;23.77;;;;;;;15.58;42.59;99960.06;5022144;28;20566;-73
2023/04/11 04:20:46;;;;;;;42.08;22.92;;;;;;;15.72;42.09;99961.94;5026395;28;20102;-73
2023/04/11 04:23:12;;;;;;;46.78;23.25;;;;;;;15.52;42.12;99962.63;4962718;28;20165;-73
2023/04/11 04:25:56;;;;;;;49.53;24.52;;;;;;;15.53;42.12;99965.13;4986810;28;20400;-73
2023/04/11 04:28:26;;;;;;;50.58;23.00;;;;;;;15.60;42.22;99965.25;4932469;28;20050;-74
2023/04/11 04:30:56;;;;;;;48.05;23.40;;;;;;;15.58;42.13;99956.56;4948924;28;20476;-72
2023/04/11 04:33:24;;;;;;;42.03;23.23;;;;;;;15.69;42.07;99959.63;4948364;28;20069;-73
2023/04/11 04:35:56;;;;;;;47.90;22.70;;;;;;;15.63;42.28;99959.53;4947333;28;20050;-73
2023/04/11 04:38:24;;;;;;;46.50;23.40;;;;;;;15.68;42.38;99957.13;4954731;28;20109;-74
2023/04/11 04:40:56;;;;;;;44.03;22.48;;;;;;;15.75;42.28;99958.91;4941640;28;20393;-74
2023/04/11 04:43:26;;;;;;;60.55;23.50;;;;;;;15.78;42.25;99952.31;4947370;28;20050;-71
2023/04/11 04:46:30;;;;;;;34.13;20.33;;;;;;;16.02;41.98;99954.75;4901380;29;20092;-73
2023/04/11 04:48:56;;;;;;;39.75;21.50;;;;;;;16.04;41.87;99960.75;4897679;29;20055;-73
2023/04/11 04:51:23;;;;;;;44.03;21.40;;;;;;;16.14;41.76;99961.31;4878949;29;20044;-72
2023/04/11 04:53:49;;;;;;;47.00;21.90;;;;;;;16.19;42.01;99956.22;4908364;28;20379;-72
2023/04/11 04:56:15;;;;;;;42.78;22.23;;;;;;;16.24;42.35;99960.00;5000433;28;20041;-72
2023/04/11 04:58:46;;;;;;;42.88;20.80;;;;;;;16.25;42.25;99950.13;4996292;28;20106;-72
2023/04/11 05:18:12;;;;;;;44.28;20.45;;;;;;;17.10;39.73;99922.41;5031723;28;20068;-73
2023/04/11 05:20:39;;;;;;;47.13;20.55;;;;;;;16.82;39.68;99940.31;4982386;28;20041;-73
2023/04/11 05:23:05;;;;;;;37.90;20.67;;;;;;;16.83;39.68;99942.81;4981999;28;20435;-72
2023/04/11 05:25:31;;;;;;;54.20;22.17;;;;;;;16.95;39.68;99950.34;4981928;28;20096;-71
2023/04/11 05:27:56;;;;;;;48.70;22.00;;;;;;;17.07;39.32;99951.50;5034572;28;20746;-73
2023/04/11 05:30:24;;;;;;;44.47;22.02;;;;;;;17.29;39.17;99947.78;4998678;28;20103;-74
2023/04/11 05:32:50;;;;;;;45.10;21.73;;;;;;;17.55;38.54;99953.41;4982171;28;20140;-74
2023/04/11 05:35:15;;;;;;;46.97;22.02;;;;;;;17.87;38.47;99958.16;4981850;28;20171;-74
2023/04/11 05:37:46;;;;;;;48.28;22.67;;;;;;;18.01;37.87;99954.53;4998653;28;20041;-74
2023/04/11 05:40:12;;;;;;;51.85;21.58;;;;;;;18.10;37.32;99948.81;4982250;28;20399;-73
2023/04/11 05:42:38;;;;;;;45.85;22.63;;;;;;;18.24;37.43;99952.38;4982160;28;20198;-72
2023/04/11 05:45:04;;;;;;;55.35;21.67;;;;;;;18.20;37.32;99937.69;4981853;28;20045;-74
2023/04/11 05:47:31;;;;;;;46.10;22.10;;;;;;;18.22;37.42;99954.47;4998093;28;20041;-72
2023/04/11 05:49:56;;;;;;;43.05;21.38;;;;;;;18.31;36.94;99950.59;4982163;28;20069;-71
2023/04/11 05:52:22;;;;;;;42.95;21.55;;;;;;;18.33;36.73;99943.97;4981646;28;20463;-71
2023/04/11 05:54:49;;;;;;;41.30;20.90;;;;;;;18.38;36.57;99943.38;4982159;28;20152;-70
2023/04/11 05:57:16;;;;;;;39.15;20.13;;;;;;;18.49;36.25;99948.19;4981799;28;20168;-72
2023/04/11 05:59:42;;;;;;;45.28;21.00;;;;;;;18.62;35.84;99953.63;5014395;28;20049;-71
2023/04/11 06:02:07;;;;;;;40.80;19.35;;;;;;;18.76;35.44;99949.94;4997910;28;20033;-72
2023/04/11 06:04:33;;;;;;;34.80;18.33;;;;;;;18.78;34.93;99945.19;4997649;28;20052;-72
2023/04/11 06:07:01;;;;;;;35.20;18.65;;;;;;;18.85;35.11;99942.53;4981661;28;20033;-71
2023/04/11 06:09:27;;;;;;;30.08;18.25;;;;;;;18.97;34.76;99948.97;4983941;28;20144;-71
2023/04/11 06:11:53;;;;;;;36.60;19.75;;;;;;;19.33;34.88;99941.34;5001253;28;20547;-73
2023/04/11 06:14:19;;;;;;;48.90;21.10;;;;;;;19.13;35.23;99951.25;5001351;28;20418;-72
2023/04/11 06:16:45;;;;;;;44.50;20.75;;;;;;;19.04;35.64;99939.84;5001379;28;20045;-71
2023/04/11 06:19:10;;;;;;;41.63;19.92;;;;;;;19.33;34.95;99942.19;5001455;28;20079;-71
2023/04/11 06:21:36;;;;;;;39.17;19.95;;;;;;;19.67;34.61;99949.22;4984887;28;20045;-73
2023/04/11 06:24:07;;;;;;;43.08;19.20;;;;;;;20.16;33.75;99948.78;4984790;28;20037;-72
2023/04/11 06:26:33;;;;;;;33.40;17.50;;;;;;;20.10;33.33;99940.44;4983562;28;20057;-72
2023/04/11 06:28:58;;;;;;;34.78;18.25;;;;;;;20.25;32.78;99944.81;5000850;28;20041;-72
2023/04/11 06:31:25;;;;;;;30.77;15.23;;;;;;;20.34;31.55;99943.53;4984995;28;20041;-72
2023/04/11 06:33:50;;;;;;;24.45;15.10;;;;;;;20.55;31.21;99946.75;4984863;28;20189;-72
2023/04/11 06:36:16;;;;;;;29.60;16.55;;;;;;;20.81;30.91;99952.03;4983309;28;20045;-72
2023/04/11 06:38:42;;;;;;;28.83;14.50;;;;;;;20.93;30.34;99958.38;4984646;28;20050;-72
2023/04/11 06:41:08;;;;;;;19.27;12.77;;;;;;;20.85;29.20;99939.72;4984721;28;20475;-72
2023/04/11 06:43:33;;;;;;;20.65;13.82;;;;;;;20.63;29.81;99945.69;4984632;28;20045;-72
2023/04/11 06:45:59;;;;;;;29.98;13.85;;;;;;;20.84;29.44;99939.94;4984924;28;20072;-72
2023/04/11 06:48:26;;;;;;;24.38;13.57;;;;;;;21.13;29.21;99951.00;5000877;28;20049;-72
2023/04/11 06:50:52;;;;;;;22.27;13.68;;;;;;;21.40;29.01;99938.94;4984455;28;20511;-72
2023/04/11 06:53:20;;;;;;;27.40;13.60;;;;;;;21.61;28.45;99944.00;4984403;28;20045;-72
2023/04/11 06:55:49;;;;;;;23.73;13.75;;;;;;;21.94;27.63;99934.75;4984465;28;20503;-72
2023/04/11 06:58:18;;;;;;;22.02;13.07;;;;;;;21.92;27.70;99939.56;5016837;28;20037;-72
2023/04/11 07:00:43;;;;;;;20.90;12.73;;;;;;;21.83;26.88;99933.63;5000442;28;20049;-71
2023/04/11 07:03:11;;;;;;;24.75;13.63;;;;;;;21.96;26.93;99930.78;4984275;28;20037;-72
2023/04/11 07:05:36;;;;;;;21.98;12.57;;;;;;;22.08;27.31;99937.09;4984424;28;20056;-72
2023/04/11 07:08:02;;;;;;;23.80;13.63;;;;;;;22.28;26.71;99940.41;4984308;28;20045;-80
2023/04/11 07:10:28;;;;;;;25.98;14.73;;;;;;;21.81;27.11;99924.91;4984331;28;20057;-72
2023/04/11 07:12:54;;;;;;;30.38;15.55;;;;;;;22.16;27.50;99930.53;4984031;28;20057;-72
2023/04/11 07:15:22;;;;;;;27.58;14.55;;;;;;;22.70;27.22;99912.41;4984105;28;20068;-72
2023/04/11 07:17:48;;;;;;;29.67;13.88;;;;;;;22.68;25.97;99919.94;5016958;28;20551;-72
2023/04/11 07:20:15;;;;;;;24.38;13.65;;;;;;;22.90;26.20;99917.53;4982480;28;20132;-72
2023/04/11 07:22:44;;;;;;;20.60;12.52;;;;;;;23.04;25.33;99911.72;4984258;28;20388;-71
2023/04/11 07:25:10;;;;;;;22.95;12.45;;;;;;;23.44;25.25;99908.38;5000330;28;20360;-72
2023/04/11 07:27:36;;;;;;;23.50;13.73;;;;;;;23.78;24.65;99913.00;4983832;28;20061;-72
2023/04/11 07:30:02;;;;;;;21.15;12.82;;;;;;;24.19;24.52;99910.97;4983997;28;20048;-73
2023/04/11 07:32:30;;;;;;;25.45;13.75;;;;;;;24.34;23.69;99916.72;5000576;28;20049;-72
2023/04/11 07:34:55;;;;;;;22.65;13.05;;;;;;;24.16;23.56;99916.88;4983864;28;20442;-72
2023/04/11 07:37:21;;;;;;;21.90;12.63;;;;;;;25.00;22.65;99916.16;5016201;28;20057;-72
2023/04/11 07:39:47;;;;;;;23.73;12.65;;;;;;;26.90;20.95;99900.94;4983655;28;20140;-72
2023/04/11 07:42:13;;;;;;;20.88;12.07;;;;;;;29.39;18.96;99910.81;4999694;28;20483;-72
2023/04/11 07:44:39;;;;;;;26.60;12.88;;;;;;;32.08;16.24;99914.38;4983541;28;20042;-73
2023/04/11 07:47:05;;;;;;;20.60;12.13;;;;;;;33.24;14.54;99899.94;4983300;28;20559;-74
2023/04/11 07:49:31;;;;;;;27.95;12.75;;;;;;;32.97;14.53;99900.63;4983702;28;20061;-73
2023/04/11 07:51:57;;;;;;;28.50;12.93;;;;;;;32.20;15.48;99890.88;4983474;28;20081;-72
2023/04/11 07:54:24;;;;;;;21.73;12.45;;;;;;;32.69;14.18;99896.06;4983247;28;20068;-73
2023/04/11 07:56:50;;;;;;;26.90;11.88;;;;;;;33.97;13.08;99900.88;4983381;28;20041;-73
2023/04/11 07:59:16;;;;;;;21.20;11.18;;;;;;;33.77;13.09;99888.28;4983233;28;20503;-73
2023/04/11 08:01:42;;;;;;;22.23;10.85;;;;;;;34.66;13.11;99880.47;5015830;28;20049;-73
2023/04/11 08:04:08;;;;;;;18.70;10.40;;;;;;;35.65;11.67;99879.16;4999319;28;20132;-73
2023/04/11 08:06:34;;;;;;;17.77;10.05;;;;;;;36.38;11.05;99868.28;4983438;28;20501;-73
2023/04/11 08:09:00;;;;;;;14.20;9.98;;;;;;;37.21;10.48;99878.19;4999379;28;20380;-73
2023/04/11 08:11:25;;;;;;;19.10;9.23;;;;;;;38.10;9.85;99887.25;4999215;28;20048;-73
2023/04/11 08:13:51;;;;;;;12.57;8.43;;;;;;;38.46;9.21;99882.03;4982858;28;20063;-73
2023/04/11 08:16:17;;;;;;;10.57;8.90;;;;;;;37.25;9.68;99865.28;5015559;28;20064;-73
2023/04/11 08:18:44;;;;;;;14.25;8.55;;;;;;;35.96;10.10;99862.59;4982748;28;20046;-73
2023/04/11 08:21:10;;;;;;;12.55;8.30;;;;;;;34.99;10.57;99870.88;4982938;28;20084;-73
2023/04/11 08:23:38;;;;;;;13.63;8.20;;;;;;;34.34;10.32;99859.31;4982983;28;20514;-81
2023/04/11 08:26:06;;;;;;;10.32;7.40;;;;;;;34.86;9.75;99861.47;4999326;28;20144;-72
2023/04/11 08:28:31;;;;;;;10.90;7.60;;;;;;;35.69;9.32;99861.63;4982737;28;20042;-74
2023/04/11 08:31:01;;;;;;;10.80;8.02;;;;;;;35.28;9.53;99852.75;4982720;28;20049;-73
2023/04/11 08:33:27;;;;;;;10.07;7.32;;;;;;;35.61;9.17;99859.63;4983001;28;20037;-73
2023/04/11 08:35:53;;;;;;;7.78;6.80;;;;;;;35.73;9.15;99840.53;4982812;28;20372;-73
2023/04/11 08:38:19;;;;;;;11.98;6.63;;;;;;;37.79;8.53;99844.31;4982578;28;20055;-73
2023/04/11 08:40:46;;;;;;;11.35;7.15;;;;;;;38.87;7.51;99847.13;4998712;28;20048;-73
2023/04/11 08:43:12;;;;;;;11.90;7.50;;;;;;;37.68;7.98;99859.69;4998645;28;20442;-73
2023/04/11 08:45:38;;;;;;;14.23;7.55;;;;;;;37.04;8.01;99837.41;4998760;28;20033;-73
2023/04/11 08:48:05;;;;;;;15.30;7.20;;;;;;;36.54;8.72;99822.41;4982556;28;20141;-73
2023/04/11 08:50:33;;;;;;;13.07;6.65;;;;;;;37.04;8.71;99823.56;4982369;28;20037;-73
2023/04/11 08:53:02;;;;;;;16.27;8.00;;;;;;;39.01;7.67;99825.47;4982324;28;20048;-73
2023/04/11 08:55:29;;;;;;;9.98;6.95;;;;;;;37.98;8.21;99819.75;4998459;28;20376;-72
2023/04/11 08:57:58;;;;;;;9.77;6.18;;;;;;;39.76;7.57;99817.47;5014785;28;20078;-72
2023/04/11 09:00:25;;;;;;;12.13;7.15;;;;;;;40.42;6.59;99818.06;4982697;28;20041;-72
2023/04/11 09:02:58;;;;;;;12.68;7.13;;;;;;;39.54;6.78;99826.25;4981984;28;20052;-73
2023/04/11 09:05:48;;;;;;;10.10;7.60;;;;;;;38.03;7.88;99823.16;4982334;28;20107;-73
2023/04/11 09:08:15;;;;;;;8.55;6.95;;;;;;;38.45;7.92;99819.34;4999025;28;20159;-73
2023/04/11 09:10:44;;;;;;;15.55;7.03;;;;;;;39.35;7.38;99800.91;4982400;28;20480;-73
2023/04/11 09:13:25;;;;;;;9.05;6.18;;;;;;;41.09;6.62;99795.81;4981899;28;20037;-75
2023/04/11 09:16:11;;;;;;;9.30;6.60;;;;;;;42.09;5.96;99798.06;4998332;28;20364;-73
2023/04/11 09:18:42;;;;;;;10.55;6.72;;;;;;;41.80;6.20;99797.75;4998026;28;20140;-73
2023/04/11 09:21:13;;;;;;;11.02;6.40;;;;;;;42.23;6.29;99794.78;4982421;28;20188;-73
2023/04/11 09:23:39;;;;;;;13.80;6.88;;;;;;;43.10;5.76;99787.59;5014889;28;20045;-73
2023/04/11 09:26:08;;;;;;;13.35;6.60;;;;;;;43.41;5.51;99778.94;4982047;28;20054;-75
2023/04/11 09:28:43;;;;;;;8.05;6.75;;;;;;;42.75;5.46;99782.06;4981964;28;20052;-72
2023/04/11 09:31:11;;;;;;;12.40;7.20;;;;;;;41.33;6.39;99772.59;4998435;28;20106;-73
2023/04/11 09:33:37;;;;;;;10.68;8.05;;;;;;;39.32;7.03;99765.44;4982173;28;20491;-73
2023/04/11 09:36:18;;;;;;;14.75;7.22;;;;;;;40.11;6.98;99760.22;5014588;28;20041;-73
2023/04/11 09:38:44;;;;;;;10.18;7.30;;;;;;;41.00;6.53;99780.38;4981984;28;20045;-73
2023/04/11 09:41:10;;;;;;;10.27;7.60;;;;;;;39.31;6.93;99765.78;4982183;28;20394;-73
2023/04/11 09:43:50;;;;;;;13.02;6.78;;;;;;;40.41;6.64;99748.81;4982417;28;20080;-72
2023/04/11 09:46:19;;;;;;;13.13;7.30;;;;;;;39.93;6.58;99750.50;4985703;28;20037;-73
2023/04/11 09:48:46;;;;;;;;;;;;;;;41.19;6.07;99750.72;5019141;28;20046;-73
2023/04/11 09:51:12;;;;;;;13.70;7.10;;;;;;;40.31;6.28;99738.16;5001786;28;19949;-80
2023/04/11 09:53:38;;;;;;;10.95;7.55;;;;;;;39.07;7.12;99740.75;4985510;28;20042;-73
2023/04/11 09:56:05;;;;;;;13.05;7.40;;;;;;;37.20;7.93;99730.50;4985583;28;20140;-72
2023/04/11 09:58:32;;;;;;;11.70;8.27;;;;;;;37.90;7.98;99729.91;4985480;28;20471;-73
2023/04/11 10:01:03;;;;;;;14.68;7.75;;;;;;;37.65;7.93;99747.47;4985522;28;20077;-72
2023/04/11 10:03:33;;;;;;;17.80;9.80;;;;;;;35.42;8.94;99709.84;4985369;28;20166;-72
2023/04/11 10:06:03;;;;;;;15.57;9.00;;;;;;;33.59;9.56;99714.78;5017894;28;20049;-73
2023/04/11 10:08:35;;;;;;;13.32;8.75;;;;;;;32.48;11.07;99697.50;4985297;28;20045;-72
2023/04/11 10:11:08;;;;;;;11.70;8.48;;;;;;;31.95;11.45;99695.28;5001742;28;20140;-72
2023/04/11 10:13:34;;;;;;;14.00;8.68;;;;;;;31.24;11.59;99694.44;5001464;28;20131;-72
2023/04/11 10:16:13;;;;;;;12.98;8.75;;;;;;;30.89;12.56;99681.94;5001264;28;20049;-72
2023/04/11 10:18:51;;;;;;;16.13;10.13;;;;;;;29.58;13.49;99680.00;5017991;28;20053;-72
2023/04/11 10:21:26;;;;;;;18.08;9.40;;;;;;;29.38;13.84;99680.09;5017096;28;20057;-72
2023/04/11 10:24:20;;;;;;;14.68;10.18;;;;;;;30.58;12.93;99680.53;5017253;28;20507;-72
2023/04/11 10:26:47;;;;;;;26.90;14.40;;;;;;;32.59;11.55;99682.47;4984924;28;20111;-72
2023/04/11 10:29:32;;;;;;;15.60;9.23;;;;;;;34.21;10.33;99684.47;5001497;28;20052;-72
2023/04/11 10:32:07;;;;;;;17.70;8.02;;;;;;;32.83;10.28;99684.28;5001030;28;20103;-73
2023/04/11 10:34:37;;;;;;;14.98;8.52;;;;;;;30.33;11.75;99681.56;5017153;28;20049;-72
2023/04/11 10:37:07;;;;;;;15.18;8.68;;;;;;;28.61;13.14;99671.50;4985443;28;20135;-76
2023/04/11 10:39:59;;;;;;;17.33;8.23;;;;;;;28.02;13.50;99666.78;5000947;28;20053;-72
2023/04/11 10:42:42;;;;;;;11.68;8.25;;;;;;;26.79;14.63;99659.34;5000868;28;20180;-72
2023/04/11 10:45:24;;;;;;;15.02;8.98;;;;;;;26.67;15.25;99654.09;4984698;28;20129;-72
2023/04/11 10:47:56;;;;;;;12.88;8.45;;;;;;;26.96;15.04;99649.94;5000760;28;20148;-72
2023/04/11 10:50:25;;;;;;;13.75;8.68;;;;;;;27.71;14.53;99652.19;5017083;28;20073;-72
2023/04/11 10:52:58;;;;;;;15.00;8.18;;;;;;;27.91;13.86;99649.53;5000663;28;20056;-72
2023/04/11 10:55:25;;;;;;;15.48;7.47;;;;;;;29.22;12.89;99648.44;5016435;28;20115;-72
2023/04/11 10:58:14;;;;;;;12.93;6.88;;;;;;;29.48;12.85;99633.53;5000770;28;20532;-72
2023/04/11 11:00:46;;;;;;;12.57;6.82;;;;;;;29.53;12.68;99628.03;4980472;28;20492;-77
2023/04/11 11:03:21;;;;;;;13.77;6.93;;;;;;;30.24;11.94;99631.22;4964248;28;20143;-73
2023/04/11 11:06:00;;;;;;;14.75;6.97;;;;;;;31.94;10.92;99652.41;5028773;28;20053;-73
2023/04/11 11:08:33;;;;;;;15.98;7.00;;;;;;;32.65;10.15;99629.00;4979652;28;20096;-73
2023/04/11 11:11:02;;;;;;;9.43;6.18;;;;;;;33.40;9.70;99628.72;4995280;28;20050;-73
2023/04/11 11:14:16;;;;;;;8.15;5.93;;;;;;;33.27;9.26;99641.34;4995779;28;20073;-73
2023/04/11 11:16:55;;;;;;;10.95;6.32;;;;;;;34.16;8.94;99629.47;4897407;29;20067;-74
2023/04/11 11:19:21;;;;;;;10.27;6.03;;;;;;;34.56;8.75;99640.63;4865672;29;20476;-74
2023/04/11 11:22:02;;;;;;;9.15;5.72;;;;;;;33.86;9.27;99621.06;4851726;29;20166;-75
2023/04/11 11:24:28;;;;;;;15.70;5.77;;;;;;;33.63;9.04;99619.41;4889358;28;20401;-72
2023/04/11 11:26:55;;;;;;;12.95;5.78;;;;;;;32.96;9.41;99620.19;4972740;28;20168;-75
2023/04/11 11:29:33;;;;;;;8.85;5.90;;;;;;;31.34;10.08;99614.78;4925156;28;20073;-72
2023/04/11 11:32:02;;;;;;;14.20;6.68;;;;;;;29.50;11.24;99603.16;4949456;28;20058;-74
2023/04/11 11:34:33;;;;;;;10.60;6.43;;;;;;;28.80;12.13;99606.94;4963580;28;20149;-73
2023/04/11 11:37:03;;;;;;;11.63;6.28;;;;;;;27.94;12.85;99599.84;4947553;28;20504;-73
2023/04/11 11:39:30;;;;;;;13.63;6.70;;;;;;;27.01;13.46;99595.44;4979177;28;20042;-73
2023/04/11 11:41:56;;;;;;;7.15;5.82;;;;;;;26.57;13.60;99588.59;4979316;28;20062;-73
2023/04/11 11:44:28;;;;;;;9.15;6.50;;;;;;;26.81;13.69;99591.78;4979528;28;20050;-73